PWSweather.com
Personal Weather Stations
Station Observations
MAKAWAOWX1
Up Country Maui, Makawao, HI 96768

Up Country MauiMakawao, HI 96768

Lat: 20.856944, Lon: -156.3149667

Elevation: 1500

Station Type: Davis Vantage Pro

www.dwayneyamato@hawaiiantel.net

High Low Average
Temperature 74.2°F23.4°C 62.0°F16.7°C 68.4°F20.2°C
Dew Point 66.7°F19.3°C 58.9°F14.9°C 63.3°F17.4°C
Winds 7.6 mph 12.2 kmh Calm Calm 2.0 mph ENE3.2 kmh ENE
Wind Gusts 11.0 mph17.7 kmh -- 3.0 mph4.8 kmh
Humidity 92% 75% 84%
Pressure 29.91 in1012.9 mb 29.84 in1010.5 mb -
Precipitation 0.00 in0.0 mm - -
Hour Temp Dew Point Humidity Winds Wind Gusts Pressure Precip Precip Rate Daily Precip Total
12:00 AM 65.4°F18.6°C 59.8°F15.4°C 82% Calm Calm -- 29.89 in1012.2 mb - 0.00 in0.0 mm 0.00 in0.0 mm
12:10 AM 65.1°F18.4°C 59.8°F15.4°C 83% Calm Calm -- 29.89 in1012.2 mb - 0.00 in0.0 mm 0.00 in0.0 mm
12:20 AM 64.9°F18.3°C 59.6°F15.3°C 83% Calm Calm -- 29.89 in1012.2 mb - 0.00 in0.0 mm 0.00 in0.0 mm
12:30 AM 64.5°F18.1°C 59.6°F15.3°C 84% 1.2 mph E1.9 kmh E 3.0 mph4.8 kmh 29.89 in1012.2 mb - 0.00 in0.0 mm 0.00 in0.0 mm
12:40 AM 64.3°F17.9°C 59.4°F15.2°C 84% Calm Calm -- 29.88 in1011.9 mb - 0.00 in0.0 mm 0.00 in0.0 mm
12:50 AM 64.3°F17.9°C 59.4°F15.2°C 84% Calm Calm -- 29.88 in1011.9 mb - 0.00 in0.0 mm 0.00 in0.0 mm
01:00 AM 64.3°F17.9°C 59.7°F15.4°C 85% Calm Calm -- 29.88 in1011.9 mb - 0.00 in0.0 mm 0.00 in0.0 mm
01:10 AM 64.4°F18.0°C 59.8°F15.4°C 85% Calm Calm -- 29.87 in1011.5 mb - 0.00 in0.0 mm 0.00 in0.0 mm
01:20 AM 64.4°F18.0°C 59.8°F15.4°C 85% Calm Calm -- 29.87 in1011.5 mb - 0.00 in0.0 mm 0.00 in0.0 mm
01:30 AM 64.1°F17.8°C 59.5°F15.3°C 85% Calm Calm -- 29.87 in1011.5 mb - 0.00 in0.0 mm 0.00 in0.0 mm
01:40 AM 63.8°F17.7°C 59.5°F15.3°C 86% Calm Calm -- 29.87 in1011.5 mb - 0.00 in0.0 mm 0.00 in0.0 mm
01:50 AM 63.5°F17.5°C 59.5°F15.3°C 87% Calm Calm -- 29.87 in1011.5 mb - 0.00 in0.0 mm 0.00 in0.0 mm
02:00 AM 63.2°F17.3°C 59.3°F15.2°C 87% Calm Calm -- 29.86 in1011.2 mb - 0.00 in0.0 mm 0.00 in0.0 mm
02:10 AM 62.9°F17.2°C 59.3°F15.2°C 88% Calm Calm -- 29.86 in1011.2 mb - 0.00 in0.0 mm 0.00 in0.0 mm
02:20 AM 62.5°F16.9°C 58.9°F14.9°C 88% Calm Calm -- 29.86 in1011.2 mb - 0.00 in0.0 mm 0.00 in0.0 mm
02:30 AM 62.2°F16.8°C 58.9°F14.9°C 89% Calm Calm -- 29.86 in1011.2 mb - 0.00 in0.0 mm 0.00 in0.0 mm
02:40 AM 62.0°F16.7°C 59.0°F15.0°C 90% Calm Calm -- 29.85 in1010.8 mb - 0.00 in0.0 mm 0.00 in0.0 mm
02:50 AM 62.0°F16.7°C 59.0°F15.0°C 90% Calm Calm -- 29.85 in1010.8 mb - 0.00 in0.0 mm 0.00 in0.0 mm
03:00 AM 62.0°F16.7°C 59.0°F15.0°C 90% Calm Calm -- 29.85 in1010.8 mb - 0.00 in0.0 mm 0.00 in0.0 mm
03:10 AM 62.0°F16.7°C 59.3°F15.2°C 91% Calm Calm -- 29.85 in1010.8 mb - 0.00 in0.0 mm 0.00 in0.0 mm
03:20 AM 62.1°F16.7°C 59.4°F15.2°C 91% Calm Calm -- 29.85 in1010.8 mb - 0.00 in0.0 mm 0.00 in0.0 mm
03:30 AM 62.2°F16.8°C 59.5°F15.3°C 91% Calm Calm -- 29.85 in1010.8 mb - 0.00 in0.0 mm 0.00 in0.0 mm
03:40 AM 62.3°F16.8°C 59.6°F15.3°C 91% Calm Calm -- 29.85 in1010.8 mb - 0.00 in0.0 mm 0.00 in0.0 mm
03:50 AM 62.2°F16.8°C 59.5°F15.3°C 91% Calm Calm -- 29.85 in1010.8 mb - 0.00 in0.0 mm 0.00 in0.0 mm
04:00 AM 62.2°F16.8°C 59.5°F15.3°C 91% Calm Calm -- 29.85 in1010.8 mb - 0.00 in0.0 mm 0.00 in0.0 mm
04:10 AM 62.1°F16.7°C 59.4°F15.2°C 91% Calm Calm -- 29.85 in1010.8 mb - 0.00 in0.0 mm 0.00 in0.0 mm
04:20 AM 62.1°F16.7°C 59.4°F15.2°C 91% Calm Calm -- 29.85 in1010.8 mb - 0.00 in0.0 mm 0.00 in0.0 mm
04:30 AM 62.1°F16.7°C 59.4°F15.2°C 91% Calm Calm -- 29.85 in1010.8 mb - 0.00 in0.0 mm 0.00 in0.0 mm
04:40 AM 62.2°F16.8°C 59.8°F15.4°C 92% Calm Calm -- 29.85 in1010.8 mb - 0.00 in0.0 mm 0.00 in0.0 mm
04:50 AM 62.5°F16.9°C 59.8°F15.4°C 91% Calm Calm -- 29.85 in1010.8 mb - 0.00 in0.0 mm 0.00 in0.0 mm
05:00 AM 62.6°F17.0°C 59.9°F15.5°C 91% Calm Calm -- 29.85 in1010.8 mb - 0.00 in0.0 mm 0.00 in0.0 mm
05:10 AM 62.8°F17.1°C 59.8°F15.4°C 90% Calm Calm -- 29.85 in1010.8 mb - 0.00 in0.0 mm 0.00 in0.0 mm
05:20 AM 63.0°F17.2°C 59.7°F15.4°C 89% Calm Calm -- 29.85 in1010.8 mb - 0.00 in0.0 mm 0.00 in0.0 mm
05:30 AM 63.2°F17.3°C 59.9°F15.5°C 89% Calm Calm -- 29.85 in1010.8 mb - 0.00 in0.0 mm 0.00 in0.0 mm
05:40 AM 63.3°F17.4°C 60.0°F15.6°C 89% Calm Calm -- 29.85 in1010.8 mb - 0.00 in0.0 mm 0.00 in0.0 mm
05:50 AM 63.5°F17.5°C 60.1°F15.6°C 89% Calm Calm -- 29.85 in1010.8 mb - 0.00 in0.0 mm 0.00 in0.0 mm
06:00 AM 63.6°F17.6°C 60.3°F15.7°C 89% Calm Calm -- 29.85 in1010.8 mb - 0.00 in0.0 mm 0.00 in0.0 mm
06:10 AM 63.7°F17.6°C 60.4°F15.8°C 89% Calm Calm -- 29.86 in1011.2 mb - 0.00 in0.0 mm 0.00 in0.0 mm
06:20 AM 63.8°F17.7°C 60.5°F15.8°C 89% Calm Calm -- 29.86 in1011.2 mb - 0.00 in0.0 mm 0.00 in0.0 mm
06:30 AM 64.0°F17.8°C 60.7°F15.9°C 89% Calm Calm -- 29.86 in1011.2 mb - 0.00 in0.0 mm 0.00 in0.0 mm
06:40 AM 64.4°F18.0°C 61.4°F16.3°C 90% Calm Calm -- 29.86 in1011.2 mb - 0.00 in0.0 mm 0.00 in0.0 mm
06:50 AM 64.9°F18.3°C 61.3°F16.3°C 88% Calm Calm -- 29.86 in1011.2 mb - 0.00 in0.0 mm 0.00 in0.0 mm
07:00 AM 65.5°F18.6°C 61.2°F16.2°C 86% Calm Calm -- 29.87 in1011.5 mb - 0.00 in0.0 mm 0.00 in0.0 mm
07:10 AM 66.2°F19.0°C 61.6°F16.4°C 85% Calm Calm -- 29.87 in1011.5 mb - 0.00 in0.0 mm 0.00 in0.0 mm
07:20 AM 66.9°F19.4°C 61.9°F16.6°C 84% Calm Calm -- 29.87 in1011.5 mb - 0.00 in0.0 mm 0.00 in0.0 mm
07:30 AM 67.5°F19.7°C 61.8°F16.6°C 82% Calm Calm -- 29.88 in1011.9 mb - 0.00 in0.0 mm 0.00 in0.0 mm
07:40 AM 68.1°F20.1°C 62.7°F17.1°C 83% Calm Calm -- 29.88 in1011.9 mb - 0.00 in0.0 mm 0.00 in0.0 mm
07:50 AM 68.5°F20.3°C 62.1°F16.7°C 80% Calm Calm -- 29.88 in1011.9 mb - 0.00 in0.0 mm 0.00 in0.0 mm
08:00 AM 69.0°F20.6°C 62.5°F16.9°C 80% Calm Calm -- 29.88 in1011.9 mb - 0.00 in0.0 mm 0.00 in0.0 mm
08:10 AM 69.8°F21.0°C 63.0°F17.2°C 79% 2.0 mph E3.2 kmh E 3.0 mph4.8 kmh 29.88 in1011.9 mb - 0.00 in0.0 mm 0.00 in0.0 mm
08:20 AM 70.6°F21.4°C 62.7°F17.1°C 76% Calm Calm -- 29.88 in1011.9 mb - 0.00 in0.0 mm 0.00 in0.0 mm
08:30 AM 71.6°F22.0°C 63.6°F17.6°C 76% Calm Calm -- 29.87 in1011.5 mb - 0.00 in0.0 mm 0.00 in0.0 mm
08:40 AM 72.3°F22.4°C 63.9°F17.7°C 75% Calm Calm -- 29.88 in1011.9 mb - 0.00 in0.0 mm 0.00 in0.0 mm
08:50 AM 72.5°F22.5°C 64.5°F18.1°C 76% 2.2 mph E3.5 kmh E 4.0 mph6.4 kmh 29.88 in1011.9 mb - 0.00 in0.0 mm 0.00 in0.0 mm
09:00 AM 72.2°F22.3°C 65.0°F18.3°C 78% 4.6 mph NE7.4 kmh NE 9.0 mph14.5 kmh 29.88 in1011.9 mb - 0.00 in0.0 mm 0.00 in0.0 mm
09:10 AM 72.0°F22.2°C 65.9°F18.8°C 81% 6.1 mph NE9.8 kmh NE 8.0 mph12.9 kmh 29.88 in1011.9 mb - 0.00 in0.0 mm 0.00 in0.0 mm
09:20 AM 71.7°F22.1°C 65.2°F18.4°C 80% 2.9 mph NE4.7 kmh NE 2.0 mph3.2 kmh 29.88 in1011.9 mb - 0.00 in0.0 mm 0.00 in0.0 mm
09:30 AM 71.9°F22.2°C 65.8°F18.8°C 81% 3.5 mph NE5.6 kmh NE 9.0 mph14.5 kmh 29.88 in1011.9 mb - 0.00 in0.0 mm 0.00 in0.0 mm
09:40 AM 72.1°F22.3°C 65.9°F18.8°C 81% 3.9 mph ENE6.3 kmh ENE 10.0 mph16.1 kmh 29.88 in1011.9 mb - 0.00 in0.0 mm 0.00 in0.0 mm
09:50 AM 72.2°F22.3°C 65.7°F18.7°C 80% 4.9 mph ENE7.9 kmh ENE 7.0 mph11.3 kmh 29.88 in1011.9 mb - 0.00 in0.0 mm 0.00 in0.0 mm
10:00 AM 72.1°F22.3°C 65.2°F18.4°C 79% 0.3 mph ENE0.5 kmh ENE 5.0 mph8.0 kmh 29.87 in1011.5 mb - 0.00 in0.0 mm 0.00 in0.0 mm
10:10 AM 72.4°F22.4°C 65.8°F18.8°C 80% 6.1 mph NE9.8 kmh NE 8.0 mph12.9 kmh 29.88 in1011.9 mb - 0.00 in0.0 mm 0.00 in0.0 mm
10:20 AM 72.3°F22.4°C 65.4°F18.6°C 79% 4.4 mph ENE7.1 kmh ENE 7.0 mph11.3 kmh 29.88 in1011.9 mb - 0.00 in0.0 mm 0.00 in0.0 mm
10:30 AM 72.0°F22.2°C 65.5°F18.6°C 80% 4.0 mph NE6.4 kmh NE 8.0 mph12.9 kmh 29.88 in1011.9 mb - 0.00 in0.0 mm 0.00 in0.0 mm
10:40 AM 71.7°F22.1°C 64.9°F18.3°C 79% 1.9 mph NE3.1 kmh NE 6.0 mph9.7 kmh 29.88 in1011.9 mb - 0.00 in0.0 mm 0.00 in0.0 mm
10:50 AM 71.4°F21.9°C 65.3°F18.5°C 81% 0.8 mph NE1.3 kmh NE 8.0 mph12.9 kmh 29.88 in1011.9 mb - 0.00 in0.0 mm 0.00 in0.0 mm
11:00 AM 72.0°F22.2°C 65.2°F18.4°C 79% 5.3 mph ENE8.5 kmh ENE 8.0 mph12.9 kmh 29.88 in1011.9 mb - 0.00 in0.0 mm 0.00 in0.0 mm
11:10 AM 72.6°F22.6°C 65.3°F18.5°C 78% 3.1 mph NE5.0 kmh NE 6.0 mph9.7 kmh 29.88 in1011.9 mb - 0.00 in0.0 mm 0.00 in0.0 mm
11:20 AM 72.8°F22.7°C 65.9°F18.8°C 79% 5.2 mph NE8.4 kmh NE 10.0 mph16.1 kmh 29.88 in1011.9 mb - 0.00 in0.0 mm 0.00 in0.0 mm
11:30 AM 73.1°F22.8°C 65.8°F18.8°C 78% 6.0 mph NNE9.7 kmh NNE 9.0 mph14.5 kmh 29.87 in1011.5 mb - 0.00 in0.0 mm 0.00 in0.0 mm
11:40 AM 73.1°F22.8°C 66.2°F19.0°C 79% 5.5 mph NE8.9 kmh NE 8.0 mph12.9 kmh 29.87 in1011.5 mb - 0.00 in0.0 mm 0.00 in0.0 mm
11:50 AM 73.3°F22.9°C 66.4°F19.1°C 79% 7.6 mph NE12.2 kmh NE 10.0 mph16.1 kmh 29.87 in1011.5 mb - 0.00 in0.0 mm 0.00 in0.0 mm
12:00 PM 73.5°F23.1°C 66.2°F19.0°C 78% 6.2 mph NE10.0 kmh NE 7.0 mph11.3 kmh 29.87 in1011.5 mb - 0.00 in0.0 mm 0.00 in0.0 mm
12:10 PM 73.1°F22.8°C 65.8°F18.8°C 78% 4.0 mph ENE6.4 kmh ENE 8.0 mph12.9 kmh 29.87 in1011.5 mb - 0.00 in0.0 mm 0.00 in0.0 mm
12:20 PM 72.4°F22.4°C 65.5°F18.6°C 79% 6.0 mph E9.7 kmh E 8.0 mph12.9 kmh 29.86 in1011.2 mb - 0.00 in0.0 mm 0.00 in0.0 mm
12:30 PM 72.2°F22.3°C 66.0°F18.9°C 81% 4.1 mph E6.6 kmh E 11.0 mph17.7 kmh 29.86 in1011.2 mb - 0.00 in0.0 mm 0.00 in0.0 mm
12:40 PM 72.9°F22.7°C 66.4°F19.1°C 80% 2.6 mph E4.2 kmh E 8.0 mph12.9 kmh 29.86 in1011.2 mb - 0.00 in0.0 mm 0.00 in0.0 mm
12:50 PM 73.6°F23.1°C 66.7°F19.3°C 79% 0.3 mph NE0.5 kmh NE -- 29.86 in1011.2 mb - 0.00 in0.0 mm 0.00 in0.0 mm
01:00 PM 73.7°F23.2°C 66.4°F19.1°C 78% 1.9 mph NE3.1 kmh NE 6.0 mph9.7 kmh 29.86 in1011.2 mb - 0.00 in0.0 mm 0.00 in0.0 mm
01:10 PM 73.9°F23.3°C 66.2°F19.0°C 77% 6.2 mph NE10.0 kmh NE 8.0 mph12.9 kmh 29.86 in1011.2 mb - 0.00 in0.0 mm 0.00 in0.0 mm
01:20 PM 73.7°F23.2°C 66.1°F18.9°C 77% 3.5 mph NE5.6 kmh NE 7.0 mph11.3 kmh 29.85 in1010.8 mb - 0.00 in0.0 mm 0.00 in0.0 mm
01:30 PM 73.9°F23.3°C 66.6°F19.2°C 78% Calm Calm 6.0 mph9.7 kmh 29.85 in1010.8 mb - 0.00 in0.0 mm 0.00 in0.0 mm
01:40 PM 73.9°F23.3°C 66.6°F19.2°C 78% 4.5 mph NE7.2 kmh NE 9.0 mph14.5 kmh 29.85 in1010.8 mb - 0.00 in0.0 mm 0.00 in0.0 mm
01:50 PM 73.6°F23.1°C 66.3°F19.1°C 78% 6.5 mph ENE10.5 kmh ENE 8.0 mph12.9 kmh 29.85 in1010.8 mb - 0.00 in0.0 mm 0.00 in0.0 mm
02:00 PM 73.5°F23.1°C 66.6°F19.2°C 79% 4.7 mph NE7.6 kmh NE 8.0 mph12.9 kmh 29.85 in1010.8 mb - 0.00 in0.0 mm 0.00 in0.0 mm
02:10 PM 73.4°F23.0°C 66.5°F19.2°C 79% Calm Calm -- 29.85 in1010.8 mb - 0.00 in0.0 mm 0.00 in0.0 mm
02:20 PM 73.2°F22.9°C 66.7°F19.3°C 80% 1.3 mph NE2.1 kmh NE 9.0 mph14.5 kmh 29.84 in1010.5 mb - 0.00 in0.0 mm 0.00 in0.0 mm
02:30 PM 73.0°F22.8°C 66.5°F19.2°C 80% 5.7 mph E9.2 kmh E 8.0 mph12.9 kmh 29.84 in1010.5 mb - 0.00 in0.0 mm 0.00 in0.0 mm
02:40 PM 72.9°F22.7°C 66.7°F19.3°C 81% 4.9 mph ENE7.9 kmh ENE 9.0 mph14.5 kmh 29.84 in1010.5 mb - 0.00 in0.0 mm 0.00 in0.0 mm
02:50 PM 73.3°F22.9°C 66.4°F19.1°C 79% 5.6 mph ENE9.0 kmh ENE 8.0 mph12.9 kmh 29.84 in1010.5 mb - 0.00 in0.0 mm 0.00 in0.0 mm
03:00 PM 73.9°F23.3°C 66.6°F19.2°C 78% 3.7 mph NE6.0 kmh NE 7.0 mph11.3 kmh 29.84 in1010.5 mb - 0.00 in0.0 mm 0.00 in0.0 mm
03:10 PM 74.2°F23.4°C 66.2°F19.0°C 76% 4.2 mph NE6.8 kmh NE 8.0 mph12.9 kmh 29.84 in1010.5 mb - 0.00 in0.0 mm 0.00 in0.0 mm
03:20 PM 74.2°F23.4°C 66.1°F18.9°C 76% 2.5 mph NE4.0 kmh NE 5.0 mph8.0 kmh 29.84 in1010.5 mb - 0.00 in0.0 mm 0.00 in0.0 mm
03:30 PM 73.9°F23.3°C 66.6°F19.2°C 78% 0.3 mph ENE0.5 kmh ENE -- 29.84 in1010.5 mb - 0.00 in0.0 mm 0.00 in0.0 mm
03:40 PM 73.3°F22.9°C 66.0°F18.9°C 78% 4.9 mph NE7.9 kmh NE 7.0 mph11.3 kmh 29.84 in1010.5 mb - 0.00 in0.0 mm 0.00 in0.0 mm
03:50 PM 72.9°F22.7°C 66.0°F18.9°C 79% 2.9 mph ENE4.7 kmh ENE 8.0 mph12.9 kmh 29.84 in1010.5 mb - 0.00 in0.0 mm 0.00 in0.0 mm
04:00 PM 72.3°F22.4°C 65.8°F18.8°C 80% 1.2 mph E1.9 kmh E -- 29.84 in1010.5 mb - 0.00 in0.0 mm 0.00 in0.0 mm
04:10 PM 71.8°F22.1°C 65.6°F18.7°C 81% 1.1 mph NE1.8 kmh NE 6.0 mph9.7 kmh 29.84 in1010.5 mb - 0.00 in0.0 mm 0.00 in0.0 mm
04:20 PM 71.5°F21.9°C 65.7°F18.7°C 82% 4.5 mph NE7.2 kmh NE 7.0 mph11.3 kmh 29.84 in1010.5 mb - 0.00 in0.0 mm 0.00 in0.0 mm
04:30 PM 71.2°F21.8°C 65.8°F18.8°C 83% 3.4 mph NE5.5 kmh NE 9.0 mph14.5 kmh 29.84 in1010.5 mb - 0.00 in0.0 mm 0.00 in0.0 mm
04:40 PM 71.1°F21.7°C 66.0°F18.9°C 84% 2.2 mph NE3.5 kmh NE 8.0 mph12.9 kmh 29.84 in1010.5 mb - 0.00 in0.0 mm 0.00 in0.0 mm
04:50 PM 71.1°F21.7°C 65.7°F18.7°C 83% 4.4 mph NE7.1 kmh NE 7.0 mph11.3 kmh 29.84 in1010.5 mb - 0.00 in0.0 mm 0.00 in0.0 mm
05:00 PM 71.0°F21.7°C 65.6°F18.7°C 83% Calm Calm -- 29.84 in1010.5 mb - 0.00 in0.0 mm 0.00 in0.0 mm
05:10 PM 71.0°F21.7°C 65.6°F18.7°C 83% Calm Calm -- 29.84 in1010.5 mb - 0.00 in0.0 mm 0.00 in0.0 mm
05:20 PM 70.9°F21.6°C 65.8°F18.8°C 84% Calm Calm -- 29.84 in1010.5 mb - 0.00 in0.0 mm 0.00 in0.0 mm
05:30 PM 70.6°F21.4°C 65.5°F18.6°C 84% 2.7 mph NE4.3 kmh NE 7.0 mph11.3 kmh 29.84 in1010.5 mb - 0.00 in0.0 mm 0.00 in0.0 mm
05:40 PM 70.3°F21.3°C 65.2°F18.4°C 84% 5.0 mph NE8.0 kmh NE 8.0 mph12.9 kmh 29.84 in1010.5 mb - 0.00 in0.0 mm 0.00 in0.0 mm
05:50 PM 69.9°F21.1°C 65.2°F18.4°C 85% 0.3 mph E0.5 kmh E 4.0 mph6.4 kmh 29.85 in1010.8 mb - 0.00 in0.0 mm 0.00 in0.0 mm
06:00 PM 69.7°F20.9°C 65.0°F18.3°C 85% 4.7 mph NE7.6 kmh NE 7.0 mph11.3 kmh 29.85 in1010.8 mb - 0.00 in0.0 mm 0.00 in0.0 mm
06:10 PM 69.4°F20.8°C 65.0°F18.3°C 86% 3.8 mph E6.1 kmh E 7.0 mph11.3 kmh 29.85 in1010.8 mb - 0.00 in0.0 mm 0.00 in0.0 mm
06:20 PM 69.1°F20.6°C 64.7°F18.2°C 86% 3.6 mph ENE5.8 kmh ENE 7.0 mph11.3 kmh 29.85 in1010.8 mb - 0.00 in0.0 mm 0.00 in0.0 mm
06:30 PM 68.8°F20.4°C 64.8°F18.2°C 87% Calm Calm -- 29.85 in1010.8 mb - 0.00 in0.0 mm 0.00 in0.0 mm
06:40 PM 68.6°F20.3°C 64.6°F18.1°C 87% 4.1 mph ENE6.6 kmh ENE 5.0 mph8.0 kmh 29.86 in1011.2 mb - 0.00 in0.0 mm 0.00 in0.0 mm
06:50 PM 68.4°F20.2°C 64.4°F18.0°C 87% 4.0 mph ENE6.4 kmh ENE 7.0 mph11.3 kmh 29.86 in1011.2 mb - 0.00 in0.0 mm 0.00 in0.0 mm
07:00 PM 68.2°F20.1°C 64.5°F18.1°C 88% 0.9 mph ENE1.4 kmh ENE 4.0 mph6.4 kmh 29.86 in1011.2 mb - 0.00 in0.0 mm 0.00 in0.0 mm
07:10 PM 68.1°F20.1°C 64.1°F17.8°C 87% 1.4 mph E2.3 kmh E 7.0 mph11.3 kmh 29.87 in1011.5 mb - 0.00 in0.0 mm 0.00 in0.0 mm
07:20 PM 68.1°F20.1°C 64.1°F17.8°C 87% Calm Calm -- 29.87 in1011.5 mb - 0.00 in0.0 mm 0.00 in0.0 mm
07:30 PM 68.1°F20.1°C 63.8°F17.7°C 86% 1.7 mph E2.7 kmh E -- 29.88 in1011.9 mb - 0.00 in0.0 mm 0.00 in0.0 mm
07:40 PM 68.2°F20.1°C 63.9°F17.7°C 86% 1.2 mph E1.9 kmh E 3.0 mph4.8 kmh 29.88 in1011.9 mb - 0.00 in0.0 mm 0.00 in0.0 mm
07:50 PM 68.3°F20.2°C 64.3°F17.9°C 87% Calm Calm -- 29.89 in1012.2 mb - 0.00 in0.0 mm 0.00 in0.0 mm
08:00 PM 68.1°F20.1°C 64.4°F18.0°C 88% Calm Calm -- 29.89 in1012.2 mb - 0.00 in0.0 mm 0.00 in0.0 mm
08:10 PM 67.9°F19.9°C 64.2°F17.9°C 88% Calm Calm -- 29.89 in1012.2 mb - 0.00 in0.0 mm 0.00 in0.0 mm
09:00 PM 67.4°F19.7°C 64.0°F17.8°C 89% Calm Calm -- 29.90 in1012.5 mb - 0.00 in0.0 mm 0.00 in0.0 mm
09:10 PM 67.3°F19.6°C 63.9°F17.7°C 89% Calm Calm -- 29.91 in1012.9 mb - 0.00 in0.0 mm 0.00 in0.0 mm
09:20 PM 67.3°F19.6°C 63.9°F17.7°C 89% Calm Calm -- 29.91 in1012.9 mb - 0.00 in0.0 mm 0.00 in0.0 mm
09:30 PM 67.4°F19.7°C 63.7°F17.6°C 88% 1.2 mph E1.9 kmh E 1.0 mph1.6 kmh 29.91 in1012.9 mb - 0.00 in0.0 mm 0.00 in0.0 mm
09:50 PM 67.4°F19.7°C 63.7°F17.6°C 88% Calm Calm -- 29.91 in1012.9 mb - 0.00 in0.0 mm 0.00 in0.0 mm
10:00 PM 67.5°F19.7°C 63.8°F17.7°C 88% Calm Calm -- 29.91 in1012.9 mb - 0.00 in0.0 mm 0.00 in0.0 mm
10:10 PM 67.5°F19.7°C 63.8°F17.7°C 88% Calm Calm -- 29.91 in1012.9 mb - 0.00 in0.0 mm 0.00 in0.0 mm
10:20 PM 67.5°F19.7°C 63.5°F17.5°C 87% Calm Calm -- 29.91 in1012.9 mb - 0.00 in0.0 mm 0.00 in0.0 mm
10:30 PM 67.5°F19.7°C 63.8°F17.7°C 88% Calm Calm -- 29.91 in1012.9 mb - 0.00 in0.0 mm 0.00 in0.0 mm
10:40 PM 67.6°F19.8°C 63.9°F17.7°C 88% Calm Calm -- 29.91 in1012.9 mb - 0.00 in0.0 mm 0.00 in0.0 mm
10:50 PM 67.5°F19.7°C 63.9°F17.7°C 88% Calm Calm -- 29.91 in1012.9 mb - 0.00 in0.0 mm 0.00 in0.0 mm
11:00 PM 67.5°F19.7°C 63.8°F17.7°C 88% Calm Calm -- 29.91 in1012.9 mb - 0.00 in0.0 mm 0.00 in0.0 mm
11:10 PM 67.4°F19.7°C 63.7°F17.6°C 88% Calm Calm -- 29.91 in1012.9 mb - 0.00 in0.0 mm 0.00 in0.0 mm
11:20 PM 67.4°F19.7°C 63.4°F17.4°C 87% Calm Calm -- 29.90 in1012.5 mb - 0.00 in0.0 mm 0.00 in0.0 mm
11:30 PM 67.4°F19.7°C 63.4°F17.4°C 87% Calm Calm -- 29.90 in1012.5 mb - 0.00 in0.0 mm 0.00 in0.0 mm
11:40 PM 67.4°F19.7°C 63.4°F17.4°C 87% Calm Calm -- 29.90 in1012.5 mb - 0.00 in0.0 mm 0.00 in0.0 mm
11:50 PM 67.4°F19.7°C 63.4°F17.4°C 87% Calm Calm -- 29.89 in1012.2 mb - 0.00 in0.0 mm 0.00 in0.0 mm